• Join FlightAware (Why Join?)
  • Login
  • US Flag 
11:57PM EST


 

Airport Tracker/Info


-or-


 

Live Flight TrackerFlight Track Log ✈ UCA3596 ✈ 01-Jul-2014 ✈ KBGM - KEWR

Flight Track Log - Related Links

Times and Time Zones

All times are in EDT time to prevent confusion due to time zone crossing. See the UCA3596 flight status page for this flight to view local times or setup timezone preferences in your user account.

Time Position Orientation Groundspeed Altitude Reporting Facility
EDT Latitude Longitude Course Direction KTS MPH feet Rate Location/Type
12:23PM 41.9400 -76.0197 160° South  Level FlightAware Approximate
12:24PM 41.8834 -75.9914 160° South  Level FlightAware Approximate
12:25PM 41.8269 -75.9632 160° South  Level FlightAware Approximate
12:26PM 41.7704 -75.9350 160° South  Level FlightAware Approximate
12:27PM 41.7139 -75.9069 160° South  Level FlightAware Approximate
12:28PM 41.6574 -75.8786 159° South  Level FlightAware Approximate
12:29PM 41.6009 -75.8502 159° South  Level FlightAware Approximate
12:30PM 41.5445 -75.8219 159° South  Level FlightAware Approximate
12:31PM 41.4880 -75.7936 159° South  Level FlightAware Approximate
12:32PM 41.4316 -75.7654 159° South  Level FlightAware Approximate
12:33PM 41.3751 -75.7373 159° South  Level FlightAware Approximate
12:33PM 41.1267 -75.6189 162° South 259 298 7,200  Level New York Center
12:34PM 41.3186 -75.7091 160° South  Level FlightAware Approximate
12:34PM 41.0919 -75.6056 164° South 265 305 6,800  Level New York Center
12:35PM 41.2621 -75.6813 162° South  Level FlightAware Approximate
12:35PM 41.0239 -75.5869 168° South 260 299 6,000  Level New York Center
12:36PM 41.2048 -75.6562 162° South  Level FlightAware Approximate
12:36PM 40.9878 -75.4964 118° Southeast 272 313 6,000  Level New York Center
12:37PM 41.1475 -75.6311 162° South  Level FlightAware Approximate
12:37PM 40.9644 -75.4067 109° East 264 304 6,000  Level New York Center
12:38PM 41.0857 -75.6041 162° South  Level FlightAware Approximate
12:38PM 40.9347 -75.3086 112° Southeast 261 300 6,000  Level New York Center
12:39PM 40.9108 -75.2300 112° Southeast 261 300 6,000  Level New York Center
12:40PM 40.8833 -75.1267 109° East 259 298 6,000  Level New York Center
12:41PM 40.8614 -75.0431 109° East 259 298 6,000  Level New York Center
12:42PM 40.8356 -74.9536 111° Southeast 259 298 6,000  Level New York Center
12:43PM 40.7986 -74.8775 123° Southeast 245 282 6,000  Level New York Center
12:44PM 40.7486 -74.8169 137° Southeast 251 289 6,000  Level New York Center
12:46PM 40.7607 -74.6610 84° East  Level FlightAware Approximate
12:53PM 40.6833 -74.1667 102° East  Level FlightAware Approximate
12:54PM 40.6925 -74.1687 37° Northeast  Level Estimated
12:55PM 40.6925 -74.1687 102° East  Level Estimated
12:56PM 40.6925 -74.1687 170° South  Level Estimated
12:57PM 40.6925 -74.1687 102° East  Level Estimated
12:58PM 40.6925 -74.1687 170° South  Level Estimated
12:59PM 40.6925 -74.1687 102° East  Level Estimated
01:00PM 40.6925 -74.1687 170° South  Level Estimated
01:01PM 40.6925 -74.1687 102° East  Level Estimated
01:02PM 40.6925 -74.1687 170° South  Level Estimated
01:03PM 40.6925 -74.1687 102° East  Level Estimated
01:04PM 40.6925 -74.1687 170° South  Level Estimated
01:05PM 40.6925 -74.1687 102° East  Level Estimated
01:06PM 40.6925 -74.1687 170° South  Level Estimated
01:07PM 40.6925 -74.1687 102° East  Level Estimated
01:08PM 40.6925 -74.1687 170° South  Level Estimated
01:09PM 40.6925 -74.1687 102° East  Level Estimated
01:10PM 40.6925 -74.1687 170° South  Level Estimated
01:11PM 40.6925 -74.1687 102° East  Level Estimated
01:12PM 40.6925 -74.1687 170° South  Level Estimated